Time;durP1;ratioP1;P1;durP2;ratioP2;P2;SDS_P1;SDS_P2;PMS_P1;PMS_P2;Temp;Humidity;BMP_temperature;BMP_pressure;BME280_temperature;BME280_humidity;BME280_pressure;Samples;Min_cycle;Max_cycle;Signal;HPM_P1;HPM_P2
2023/07/01 00:00:16;;;;;;;12.07;5.28;;;;;;;26.55;54.09;95915.47;5036468;28;20030;-26
2023/07/01 00:02:41;;;;;;;16.00;5.05;;;;;;;26.63;53.92;95910.69;5036279;28;20070;-27
2023/07/01 00:05:07;;;;;;;12.57;4.78;;;;;;;26.60;53.89;95905.47;5035927;28;20240;-27
2023/07/01 00:07:34;;;;;;;12.63;4.60;;;;;;;26.62;53.98;95905.69;5036004;28;20056;-27
2023/07/01 00:09:59;;;;;;;17.17;4.85;;;;;;;26.70;53.64;95907.25;5035703;28;20022;-27
2023/07/01 00:12:25;;;;;;;14.65;5.45;;;;;;;26.49;54.44;95912.09;5035907;28;20066;-27
2023/07/01 00:14:50;;;;;;;13.63;5.53;;;;;;;26.57;54.21;95935.16;5036099;28;20032;-27
2023/07/01 00:17:16;;;;;;;12.80;4.95;;;;;;;26.59;54.17;95929.75;5035146;28;20021;-28
2023/07/01 00:19:43;;;;;;;9.00;5.07;;;;;;;26.62;54.26;95920.34;5036025;28;20100;-27
2023/07/01 00:22:08;;;;;;;15.40;5.63;;;;;;;26.62;53.75;95925.16;5043379;28;20059;-26
2023/07/01 00:24:34;;;;;;;13.45;5.32;;;;;;;26.72;53.38;95912.97;5035565;28;20064;-27
2023/07/01 00:26:59;;;;;;;13.85;4.82;;;;;;;26.79;53.15;95895.59;5035823;28;20041;-27
2023/07/01 00:29:25;;;;;;;17.30;5.43;;;;;;;26.56;53.89;95910.66;5035796;28;20017;-26
2023/07/01 00:31:50;;;;;;;11.32;5.65;;;;;;;26.66;53.85;95914.44;5035647;28;20025;-26
2023/07/01 00:34:15;;;;;;;14.07;5.60;;;;;;;26.71;53.70;95919.09;5035568;28;20458;-27
2023/07/01 00:36:42;;;;;;;17.95;5.32;;;;;;;26.63;54.04;95907.91;5035431;28;20419;-28
2023/07/01 00:39:07;;;;;;;16.92;5.78;;;;;;;26.68;53.58;95903.50;5035072;28;20075;-27
2023/07/01 00:41:33;;;;;;;12.00;5.13;;;;;;;26.31;54.53;95907.50;5035620;28;20034;-26
2023/07/01 00:43:58;;;;;;;17.33;6.00;;;;;;;26.47;54.20;95914.66;5035373;28;20459;-27
2023/07/01 00:46:24;;;;;;;16.35;5.97;;;;;;;26.43;54.42;95915.03;5042396;28;20075;-26
2023/07/01 00:48:49;;;;;;;13.10;5.30;;;;;;;26.66;53.84;95914.44;5035201;28;20498;-27
2023/07/01 00:51:15;;;;;;;13.82;5.65;;;;;;;26.47;53.97;95903.53;5035428;28;20020;-26
2023/07/01 00:53:40;;;;;;;15.18;5.55;;;;;;;26.44;54.22;95896.31;5034815;28;20025;-28
2023/07/01 00:56:07;;;;;;;14.68;6.60;;;;;;;26.63;53.85;95896.78;5035106;28;20021;-27
2023/07/01 00:58:33;;;;;;;13.73;5.93;;;;;;;26.61;53.80;95893.81;5035132;28;20025;-26
2023/07/01 01:01:01;;;;;;;13.95;6.05;;;;;;;26.40;53.49;95890.34;5038625;28;20021;-27
2023/07/01 01:03:48;;;;;;;17.70;6.45;;;;;;;26.43;54.15;95883.69;5037611;28;20148;-26
2023/07/01 01:06:33;;;;;;;15.50;5.97;;;;;;;26.43;53.89;95880.91;5034649;28;20026;-26
2023/07/01 01:09:31;;;;;;;15.32;6.18;;;;;;;26.36;54.08;95884.38;5042065;28;20486;-27
2023/07/01 01:11:58;;;;;;;14.80;5.30;;;;;;;26.45;54.18;95879.09;5041815;28;20014;-29
2023/07/01 01:14:25;;;;;;;14.27;5.45;;;;;;;26.35;54.30;95868.97;5040458;28;20446;-27
2023/07/01 01:16:52;;;;;;;19.55;6.63;;;;;;;26.40;54.21;95868.09;5035982;28;20026;-27
2023/07/01 01:19:40;;;;;;;15.88;5.95;;;;;;;26.55;53.56;95859.13;5035127;28;20112;-27
2023/07/01 01:22:30;;;;;;;13.05;5.93;;;;;;;26.45;53.62;95856.84;5034504;28;20021;-27
2023/07/01 01:25:05;;;;;;;15.43;6.07;;;;;;;26.20;54.37;95858.47;5041206;28;20389;-26
2023/07/01 01:27:41;;;;;;;16.15;6.65;;;;;;;26.34;54.25;95856.38;5034627;28;20053;-27
2023/07/01 01:30:07;;;;;;;15.18;6.22;;;;;;;26.42;53.73;95852.38;5046265;28;20037;-27
2023/07/01 01:32:34;;;;;;;17.08;7.13;;;;;;;26.31;54.19;95861.00;5034388;28;20029;-27
2023/07/01 01:35:00;;;;;;;17.05;5.93;;;;;;;26.51;53.79;95867.06;5034170;28;20028;-27
2023/07/01 01:37:47;;;;;;;15.70;6.80;;;;;;;26.54;53.11;95869.50;5035761;28;20024;-27
2023/07/01 01:40:39;;;;;;;14.52;6.60;;;;;;;26.70;53.02;95875.91;5036075;28;20100;-27
2023/07/01 01:43:12;;;;;;;14.27;5.88;;;;;;;26.55;53.25;95876.53;5034289;28;20479;-27
2023/07/01 01:45:38;;;;;;;16.23;6.05;;;;;;;26.63;52.86;95871.00;5033949;28;20149;-27
2023/07/01 01:48:05;;;;;;;13.50;4.75;;;;;;;26.65;51.81;95880.31;5047325;28;20422;-27
2023/07/01 01:50:35;;;;;;;9.68;4.80;;;;;;;26.64;50.73;95878.81;5033865;28;20029;-27
2023/07/01 01:53:04;;;;;;;6.68;3.80;;;;;;;26.56;49.18;95880.81;5034293;28;20386;-27
2023/07/01 01:55:31;;;;;;;6.30;3.78;;;;;;;26.56;48.75;95883.59;5034118;28;20459;-27
2023/07/01 01:57:58;;;;;;;9.82;3.80;;;;;;;26.52;49.28;95872.06;5034020;28;20049;-26
2023/07/01 02:00:24;;;;;;;8.52;3.60;;;;;;;26.52;50.00;95872.06;5033650;28;20071;-26
2023/07/01 02:02:49;;;;;;;7.25;3.40;;;;;;;26.51;50.47;95870.56;5033588;28;20053;-27
2023/07/01 02:05:15;;;;;;;8.80;3.38;;;;;;;26.66;50.06;95869.94;5033670;28;20030;-26
2023/07/01 02:07:40;;;;;;;5.47;3.85;;;;;;;26.57;49.98;95850.97;5034058;28;20017;-26
2023/07/01 02:10:07;;;;;;;7.90;3.58;;;;;;;26.49;50.06;95853.69;5033716;28;20025;-27
2023/07/01 02:12:32;;;;;;;7.53;4.20;;;;;;;26.49;49.60;95862.03;5033415;28;20110;-26
2023/07/01 02:14:58;;;;;;;5.68;3.75;;;;;;;26.52;49.07;95851.84;5033635;28;20049;-26
2023/07/01 02:17:23;;;;;;;7.80;3.67;;;;;;;26.46;48.04;95863.13;5033378;28;20574;-26
2023/07/01 02:19:48;;;;;;;4.47;3.20;;;;;;;26.60;46.72;95858.94;5034505;28;20175;-27
2023/07/01 02:22:14;;;;;;;5.53;3.50;;;;;;;26.44;45.66;95862.94;5033306;28;20021;-28
2023/07/01 02:24:39;;;;;;;6.40;3.83;;;;;;;26.32;46.35;95867.31;5033641;28;20028;-27
2023/07/01 02:27:05;;;;;;;6.22;3.50;;;;;;;26.41;45.07;95852.91;5046715;28;20076;-27
2023/07/01 02:29:31;;;;;;;4.93;3.42;;;;;;;26.54;44.47;95858.38;5033447;28;20029;-27
2023/07/01 02:31:56;;;;;;;5.90;3.22;;;;;;;26.30;44.58;95855.97;5033826;28;20045;-27
2023/07/01 02:34:26;;;;;;;5.25;2.95;;;;;;;26.44;44.49;95849.03;5033336;28;20137;-27
2023/07/01 02:36:52;;;;;;;4.97;3.05;;;;;;;26.41;44.08;95842.53;5033456;28;20032;-27
2023/07/01 02:39:17;;;;;;;5.18;3.13;;;;;;;26.28;44.04;95844.66;5038989;28;20033;-27
2023/07/01 02:41:43;;;;;;;5.63;3.17;;;;;;;26.29;43.78;95837.81;5037157;28;20077;-26
2023/07/01 02:44:08;;;;;;;4.97;3.08;;;;;;;26.35;44.03;95825.25;5052178;28;20078;-26
2023/07/01 02:46:34;;;;;;;4.68;2.90;;;;;;;26.29;43.36;95823.91;5044684;28;20053;-27
2023/07/01 02:48:59;;;;;;;4.22;2.88;;;;;;;26.38;44.05;95828.97;5037417;28;20022;-27
2023/07/01 02:51:24;;;;;;;5.68;3.35;;;;;;;26.60;43.30;95833.16;5044387;28;20485;-27
2023/07/01 02:53:50;;;;;;;5.65;3.03;;;;;;;26.17;43.86;95839.38;5044403;28;20100;-26
2023/07/01 02:56:16;;;;;;;5.13;3.10;;;;;;;26.13;44.19;95851.56;5037363;28;20396;-26
2023/07/01 02:58:41;;;;;;;4.80;3.15;;;;;;;26.23;44.48;95837.91;5037052;28;20051;-26
2023/07/01 03:01:07;;;;;;;4.82;3.08;;;;;;;26.29;44.34;95835.03;5037421;28;20382;-28
2023/07/01 03:03:32;;;;;;;5.60;3.20;;;;;;;26.31;44.55;95829.69;5037418;28;20116;-27
2023/07/01 03:05:57;;;;;;;6.95;3.10;;;;;;;26.19;45.16;95834.00;5037034;28;20025;-27
2023/07/01 03:08:23;;;;;;;10.13;3.65;;;;;;;26.16;45.44;95829.53;5037215;28;20458;-27
2023/07/01 03:10:48;;;;;;;5.30;2.97;;;;;;;26.35;44.20;95819.69;5036836;28;20462;-27
2023/07/01 03:13:15;;;;;;;3.70;2.65;;;;;;;26.28;44.33;95817.59;5036821;28;20534;-26
2023/07/01 03:15:41;;;;;;;6.03;2.63;;;;;;;26.19;44.45;95809.75;5036839;28;20458;-26
2023/07/01 03:18:07;;;;;;;3.97;2.80;;;;;;;26.24;44.24;95819.94;5037171;28;20087;-26
2023/07/01 03:20:33;;;;;;;7.15;3.50;;;;;;;26.02;44.63;95826.84;5043651;28;20103;-27
2023/07/01 03:22:59;;;;;;;5.18;2.88;;;;;;;26.12;44.40;95813.94;5036768;28;20455;-27
2023/07/01 03:25:26;;;;;;;5.03;2.55;;;;;;;26.30;44.39;95806.69;5035350;28;20368;-28
2023/07/01 03:27:51;;;;;;;4.10;2.65;;;;;;;26.29;44.32;95807.22;5036469;28;20025;-27
2023/07/01 03:30:18;;;;;;;4.85;2.50;;;;;;;26.22;44.45;95810.66;5043922;28;20029;-26
2023/07/01 03:32:45;;;;;;;5.10;2.33;;;;;;;26.20;44.44;95802.91;5036905;28;20398;-26
2023/07/01 03:35:11;;;;;;;6.82;3.35;;;;;;;26.06;44.82;95805.03;5036454;28;20028;-28
2023/07/01 03:37:41;;;;;;;3.33;2.35;;;;;;;26.09;44.41;95795.56;5036414;28;20025;-26
2023/07/01 03:40:11;;;;;;;5.10;2.85;;;;;;;26.24;45.05;95802.53;5036262;28;20032;-26
2023/07/01 03:42:40;;;;;;;4.90;2.88;;;;;;;26.15;44.25;95800.25;5036228;28;20107;-27
2023/07/01 03:45:07;;;;;;;4.72;2.58;;;;;;;26.23;44.53;95798.25;5036268;28;20017;-27
2023/07/01 03:47:34;;;;;;;6.28;3.05;;;;;;;25.89;44.83;95807.47;5058572;28;20079;-26
2023/07/01 03:50:00;;;;;;;4.97;2.50;;;;;;;25.66;44.54;95806.53;5036593;28;20048;-27
2023/07/01 03:52:25;;;;;;;4.45;2.35;;;;;;;25.78;44.65;95804.97;5035177;28;20029;-26
2023/07/01 03:54:50;;;;;;;5.75;2.70;;;;;;;25.56;44.68;95803.47;5036431;28;20022;-26
2023/07/01 03:57:16;;;;;;;5.35;2.58;;;;;;;25.66;44.96;95800.97;5035986;28;20379;-26
2023/07/01 03:59:42;;;;;;;6.07;2.92;;;;;;;25.53;45.46;95807.31;5036666;28;20903;-28
2023/07/01 04:02:07;;;;;;;3.10;2.55;;;;;;;25.54;45.46;95819.16;5036436;28;20022;-26
2023/07/01 04:04:33;;;;;;;6.57;2.88;;;;;;;25.67;44.96;95816.34;5036100;28;20033;-26
2023/07/01 04:06:58;;;;;;;4.32;2.97;;;;;;;25.68;45.09;95810.25;5035976;28;20044;-27
2023/07/01 04:09:25;;;;;;;3.63;2.55;;;;;;;25.84;44.72;95813.91;5035923;28;20017;-26
2023/07/01 04:11:52;;;;;;;5.80;2.78;;;;;;;25.82;45.08;95808.16;5036177;28;20025;-26
2023/07/01 04:14:17;;;;;;;4.70;2.80;;;;;;;25.92;44.79;95803.63;5035787;28;20475;-26
2023/07/01 04:16:44;;;;;;;3.90;2.70;;;;;;;25.91;44.78;95809.72;5035866;28;20047;-26
2023/07/01 04:19:10;;;;;;;4.55;3.15;;;;;;;25.77;44.83;95803.47;5036331;28;20062;-27
2023/07/01 04:21:35;;;;;;;4.75;2.67;;;;;;;25.69;45.52;95805.47;5035442;28;20025;-26
2023/07/01 04:24:04;;;;;;;13.48;2.92;;;;;;;25.62;45.10;95811.69;5035577;28;20033;-27
2023/07/01 04:26:30;;;;;;;9.38;2.83;;;;;;;25.79;44.41;95809.25;5056759;28;20021;-26
2023/07/01 04:28:55;;;;;;;5.55;2.88;;;;;;;25.60;44.63;95809.41;5038069;28;20029;-26
2023/07/01 04:31:21;;;;;;;4.82;2.75;;;;;;;25.73;44.76;95805.84;5034214;28;20494;-26
2023/07/01 04:33:47;;;;;;;5.30;2.58;;;;;;;25.68;44.95;95801.94;5035212;28;20025;-26
2023/07/01 04:36:12;;;;;;;4.95;2.42;;;;;;;25.83;44.62;95801.31;5035331;28;20017;-26
2023/07/01 04:38:38;;;;;;;3.90;2.55;;;;;;;25.66;45.38;95795.44;5035447;28;20444;-26
2023/07/01 04:41:05;;;;;;;4.72;2.78;;;;;;;25.75;44.95;95792.91;5034967;28;20048;-27
2023/07/01 04:43:31;;;;;;;6.53;3.20;;;;;;;25.74;44.99;95796.22;5042750;28;20064;-26
2023/07/01 04:45:56;;;;;;;5.82;2.75;;;;;;;25.77;44.55;95803.47;5034914;28;20041;-26
2023/07/01 04:48:22;;;;;;;4.13;2.65;;;;;;;25.72;44.92;95801.56;5035535;28;20028;-27
2023/07/01 04:50:47;;;;;;;4.93;2.67;;;;;;;25.92;44.75;95806.38;5035152;28;20104;-26
2023/07/01 04:53:13;;;;;;;4.72;2.70;;;;;;;25.76;44.81;95804.78;5035453;28;20024;-26
2023/07/01 04:55:38;;;;;;;5.30;2.25;;;;;;;25.74;45.09;95808.09;5042320;28;20020;-27
2023/07/01 04:58:04;;;;;;;5.82;2.60;;;;;;;25.92;44.76;95808.41;5035007;28;20022;-26
2023/07/01 05:00:29;;;;;;;3.97;2.67;;;;;;;25.81;44.86;95811.47;5035777;28;20037;-26
2023/07/01 05:02:55;;;;;;;4.80;2.70;;;;;;;25.89;44.80;95810.25;5035100;28;20021;-27
2023/07/01 05:05:20;;;;;;;5.10;3.17;;;;;;;25.77;45.19;95818.13;5034681;28;20034;-26
2023/07/01 05:07:46;;;;;;;5.18;3.58;;;;;;;25.95;44.33;95816.44;5034853;28;20026;-27
2023/07/01 05:10:11;;;;;;;4.32;3.22;;;;;;;25.77;44.62;95809.78;5034645;28;20028;-26
2023/07/01 05:12:37;;;;;;;4.53;3.05;;;;;;;25.73;44.73;95814.94;5034964;28;20033;-26
2023/07/01 05:15:03;;;;;;;4.25;2.72;;;;;;;25.98;44.53;95814.56;5034527;28;20021;-27
2023/07/01 05:17:29;;;;;;;3.60;2.58;;;;;;;26.00;44.18;95818.28;5034663;28;20059;-26
2023/07/01 05:19:54;;;;;;;4.32;2.63;;;;;;;25.80;44.72;95816.28;5034964;28;20029;-27
2023/07/01 05:22:20;;;;;;;5.13;3.13;;;;;;;25.92;44.69;95814.72;5034874;28;20367;-27
2023/07/01 05:24:45;;;;;;;5.07;2.72;;;;;;;25.94;44.71;95812.16;5041563;28;20143;-27
2023/07/01 05:27:11;;;;;;;5.78;2.67;;;;;;;25.95;44.90;95808.09;5034383;28;20032;-27
2023/07/01 05:29:36;;;;;;;4.22;2.70;;;;;;;25.99;44.71;95808.47;5034526;28;20021;-27
2023/07/01 05:32:03;;;;;;;3.95;2.65;;;;;;;25.75;45.34;95809.56;5034167;28;20029;-26
2023/07/01 05:34:29;;;;;;;4.97;2.75;;;;;;;25.87;44.89;95810.03;5034281;28;20113;-26
2023/07/01 05:36:55;;;;;;;5.32;2.90;;;;;;;25.86;44.99;95807.81;5034399;28;20021;-27
2023/07/01 05:39:21;;;;;;;6.88;3.10;;;;;;;26.08;44.84;95807.25;5041897;28;20021;-27
2023/07/01 05:41:47;;;;;;;4.78;2.97;;;;;;;25.92;44.65;95809.16;5034050;28;20033;-26
2023/07/01 05:44:12;;;;;;;5.50;2.90;;;;;;;26.04;44.75;95801.28;5034172;28;20020;-28
2023/07/01 05:46:40;;;;;;;6.07;3.30;;;;;;;26.11;44.47;95806.16;5033956;28;20533;-27
2023/07/01 05:49:05;;;;;;;5.15;2.97;;;;;;;26.04;44.93;95809.63;5033919;28;20030;-27
2023/07/01 05:51:31;;;;;;;6.00;3.50;;;;;;;26.01;45.03;95808.69;5034286;28;20028;-27
2023/07/01 05:53:56;;;;;;;6.00;3.08;;;;;;;26.08;45.04;95810.03;5034082;28;20033;-26
2023/07/01 05:56:22;;;;;;;4.75;3.00;;;;;;;26.10;45.17;95813.75;5033870;28;20017;-26
2023/07/01 05:58:47;;;;;;;6.15;3.67;;;;;;;26.10;45.16;95821.31;5034410;28;20024;-27
2023/07/01 06:01:12;;;;;;;6.85;3.80;;;;;;;26.26;44.76;95817.38;5034585;28;20027;-26
2023/07/01 06:03:38;;;;;;;7.53;3.25;;;;;;;26.15;45.19;95828.03;5034095;28;20108;-26
2023/07/01 06:06:03;;;;;;;6.57;3.75;;;;;;;26.24;45.54;95819.22;5033547;28;20019;-28
2023/07/01 06:08:29;;;;;;;7.32;3.95;;;;;;;26.06;45.80;95818.91;5033688;28;20029;-26
2023/07/01 06:10:54;;;;;;;10.07;4.00;;;;;;;26.27;45.96;95815.34;5033541;28;20033;-27
2023/07/01 06:13:20;;;;;;;6.57;3.83;;;;;;;26.19;46.51;95812.53;5046154;28;20481;-26
2023/07/01 06:15:45;;;;;;;7.45;3.85;;;;;;;26.20;46.41;95814.00;5035101;28;20029;-26
2023/07/01 06:18:10;;;;;;;7.90;3.90;;;;;;;26.03;47.42;95816.47;5033984;28;20467;-27
2023/07/01 06:20:36;;;;;;;11.57;3.72;;;;;;;25.95;47.90;95818.47;5033692;28;20032;-26
2023/07/01 06:23:01;;;;;;;8.45;4.03;;;;;;;25.91;48.29;95815.25;5033628;28;20037;-26
2023/07/01 06:25:27;;;;;;;8.35;4.60;;;;;;;26.13;47.76;95821.00;5033233;28;20033;-26
2023/07/01 06:27:52;;;;;;;9.13;5.45;;;;;;;26.12;47.79;95811.16;5033715;28;20021;-26
2023/07/01 06:30:18;;;;;;;8.93;4.25;;;;;;;26.22;47.85;95810.66;5033474;28;20030;-27
2023/07/01 06:32:44;;;;;;;8.85;4.03;;;;;;;26.16;47.65;95815.63;5033144;28;20032;-27
2023/07/01 06:35:09;;;;;;;8.95;4.72;;;;;;;26.24;48.01;95808.09;5033689;28;20025;-26
2023/07/01 06:37:35;;;;;;;8.68;4.45;;;;;;;26.25;47.96;95804.03;5033213;28;20025;-27
2023/07/01 06:40:00;;;;;;;8.30;4.30;;;;;;;26.24;48.06;95803.28;5043508;28;20025;-27
2023/07/01 06:42:26;;;;;;;7.78;3.97;;;;;;;26.19;47.70;95811.78;5033237;28;20045;-27
2023/07/01 06:44:52;;;;;;;7.80;4.05;;;;;;;26.39;47.19;95814.53;5033129;28;20374;-27
2023/07/01 06:47:17;;;;;;;8.13;3.90;;;;;;;26.27;48.06;95815.34;5033681;28;20568;-26
2023/07/01 06:49:43;;;;;;;8.45;4.15;;;;;;;26.13;48.16;95817.47;5033327;28;20018;-26
2023/07/01 06:52:08;;;;;;;10.82;4.50;;;;;;;26.23;47.98;95828.84;5033036;28;20045;-26
2023/07/01 06:54:34;;;;;;;9.27;4.05;;;;;;;26.36;48.04;95832.28;5033294;28;20025;-27
2023/07/01 06:56:59;;;;;;;9.27;4.50;;;;;;;26.11;48.76;95834.69;5033019;28;20097;-26
2023/07/01 06:59:24;;;;;;;11.63;4.20;;;;;;;26.25;48.41;95840.91;5033152;28;20029;-27
2023/07/01 07:01:50;;;;;;;9.13;4.15;;;;;;;26.25;48.40;95840.91;5040900;28;20033;-26
2023/07/01 07:04:15;;;;;;;8.02;4.07;;;;;;;26.26;48.43;95833.31;5033176;28;20067;-27
2023/07/01 07:06:41;;;;;;;9.43;4.25;;;;;;;26.15;49.01;95839.91;5033150;28;20021;-26
2023/07/01 07:09:06;;;;;;;10.93;4.05;;;;;;;26.16;49.02;95835.09;5032960;28;20052;-27
2023/07/01 07:11:32;;;;;;;10.38;4.82;;;;;;;26.18;49.13;95840.84;5033390;28;20105;-28
2023/07/01 07:13:58;;;;;;;7.32;4.32;;;;;;;26.15;49.05;95844.72;5033331;28;20057;-26
2023/07/01 07:16:23;;;;;;;9.05;4.45;;;;;;;26.51;48.29;95842.78;5033133;28;20116;-27
2023/07/01 07:18:49;;;;;;;10.90;5.10;;;;;;;26.16;49.12;95843.44;5032766;28;20025;-26
2023/07/01 07:21:14;;;;;;;8.40;4.20;;;;;;;26.20;49.12;95841.81;5032876;28;20013;-27
2023/07/01 07:23:40;;;;;;;11.27;4.72;;;;;;;26.52;48.31;95833.13;5032941;28;20463;-28
2023/07/01 07:26:07;;;;;;;10.48;4.10;;;;;;;26.36;48.51;95829.50;5033439;28;20372;-26
2023/07/01 07:28:33;;;;;;;10.10;4.20;;;;;;;26.21;49.10;95828.66;5036791;28;20028;-27
2023/07/01 07:30:59;;;;;;;10.00;4.50;;;;;;;26.18;49.35;95832.53;5043599;28;20037;-27
2023/07/01 07:33:24;;;;;;;8.98;4.32;;;;;;;26.26;49.16;95828.50;5036659;28;20043;-27
2023/07/01 07:35:50;;;;;;;10.13;4.47;;;;;;;26.29;48.96;95812.78;5036334;28;20018;-26
2023/07/01 07:38:15;;;;;;;7.75;4.28;;;;;;;26.27;49.00;95818.13;5036250;28;20079;-28
2023/07/01 07:40:42;;;;;;;9.85;4.18;;;;;;;26.32;49.36;95825.59;5043399;28;20029;-27
2023/07/01 07:43:10;;;;;;;9.10;4.60;;;;;;;26.28;48.84;95819.63;5043320;28;20554;-28
2023/07/01 07:45:35;;;;;;;10.65;4.50;;;;;;;26.18;49.76;95819.38;5036278;28;20043;-26
2023/07/01 07:48:01;;;;;;;9.93;4.07;;;;;;;26.29;49.42;95812.78;5036276;28;20025;-26
2023/07/01 07:50:26;;;;;;;6.88;3.95;;;;;;;26.24;49.05;95808.09;5036115;28;20017;-27
2023/07/01 07:52:52;;;;;;;8.68;4.13;;;;;;;26.33;49.08;95804.84;5036169;28;20017;-26
2023/07/01 07:55:17;;;;;;;10.30;4.28;;;;;;;26.26;49.09;95809.03;5036028;28;20022;-26
2023/07/01 07:57:43;;;;;;;11.43;4.35;;;;;;;26.50;48.65;95804.38;5044058;28;20104;-26
2023/07/01 08:00:09;;;;;;;9.10;4.50;;;;;;;26.28;49.08;95805.75;5036001;28;20029;-27
2023/07/01 08:02:37;;;;;;;10.57;4.47;;;;;;;26.61;47.90;95812.41;5036447;28;20032;-27
2023/07/01 08:05:03;;;;;;;13.23;5.00;;;;;;;26.41;48.52;95814.72;5036006;28;20022;-26
2023/07/01 08:07:29;;;;;;;12.48;4.82;;;;;;;26.58;48.30;95808.69;5035811;28;20030;-26
2023/07/01 08:09:54;;;;;;;10.02;4.47;;;;;;;26.46;48.67;95815.84;5036586;28;20521;-26
2023/07/01 08:12:20;;;;;;;16.63;6.68;;;;;;;26.64;48.31;95819.66;5036133;28;20022;-26
2023/07/01 08:14:45;;;;;;;14.88;4.65;;;;;;;26.71;47.97;95816.91;5035702;28;20074;-26
2023/07/01 08:17:11;;;;;;;10.27;4.35;;;;;;;26.71;48.23;95814.13;5035789;28;20067;-27
2023/07/01 08:19:36;;;;;;;11.10;4.60;;;;;;;26.72;48.47;95823.97;5045404;28;20051;-26
2023/07/01 08:22:02;;;;;;;10.98;5.13;;;;;;;26.58;48.80;95813.53;5036314;28;20021;-26
2023/07/01 08:24:27;;;;;;;16.13;5.50;;;;;;;26.69;48.40;95819.53;5043245;28;20120;-26
2023/07/01 08:26:53;;;;;;;16.15;5.55;;;;;;;26.73;48.15;95816.38;5036066;28;20056;-26
2023/07/01 08:29:21;;;;;;;12.02;4.93;;;;;;;26.88;47.77;95824.03;5035319;28;20018;-26
2023/07/01 08:31:47;;;;;;;12.02;5.18;;;;;;;26.82;48.25;95827.00;5035365;28;20114;-26
2023/07/01 08:34:12;;;;;;;13.80;4.15;;;;;;;26.88;48.30;95815.69;5035357;28;20457;-26
2023/07/01 08:36:38;;;;;;;10.00;4.78;;;;;;;26.98;48.08;95816.69;5035621;28;20112;-26
2023/07/01 08:39:03;;;;;;;10.00;4.93;;;;;;;26.58;48.87;95814.25;5035365;28;20025;-26
2023/07/01 08:41:34;;;;;;;8.98;4.35;;;;;;;26.93;47.42;95817.63;5048494;28;20049;-26
2023/07/01 08:44:01;;;;;;;12.85;4.97;;;;;;;26.89;47.44;95819.97;5035324;28;20029;-26
2023/07/01 08:46:27;;;;;;;11.25;5.03;;;;;;;26.76;47.59;95821.59;5035289;28;20032;-26
2023/07/01 08:48:54;;;;;;;13.32;5.28;;;;;;;26.76;47.89;95821.59;5035439;28;20092;-26
2023/07/01 08:51:30;;;;;;;11.20;5.28;;;;;;;26.79;47.84;95819.75;5035538;28;20018;-26
2023/07/01 08:53:59;;;;;;;15.95;5.40;;;;;;;26.76;47.39;95807.69;5034969;28;20063;-26
2023/07/01 08:56:25;;;;;;;9.15;4.50;;;;;;;26.76;48.09;95807.69;5035008;28;20479;-26
2023/07/01 08:58:50;;;;;;;12.88;4.97;;;;;;;26.81;47.55;95806.78;5034916;28;20051;-26
2023/07/01 09:01:17;;;;;;;14.82;5.30;;;;;;;26.81;47.88;95804.00;5035557;28;20442;-26
2023/07/01 09:03:46;;;;;;;10.90;5.35;;;;;;;26.76;47.76;95804.91;5035527;28;20029;-26
2023/07/01 09:06:11;;;;;;;14.88;5.18;;;;;;;26.71;48.26;95805.03;5035096;28;20026;-26
2023/07/01 09:08:40;;;;;;;9.63;5.38;;;;;;;26.83;47.65;95806.22;5034824;28;20017;-26
2023/07/01 09:11:09;;;;;;;9.55;4.38;;;;;;;26.87;47.30;95798.25;5034684;28;20060;-26
2023/07/01 09:13:35;;;;;;;11.43;4.97;;;;;;;26.76;47.59;95802.13;5034490;28;20057;-26
2023/07/01 09:16:00;;;;;;;12.68;6.07;;;;;;;26.91;46.75;95801.44;5034876;28;20057;-26
2023/07/01 09:18:28;;;;;;;18.08;9.00;;;;;;;26.90;47.02;95804.75;5034887;28;20033;-26
2023/07/01 09:20:55;;;;;;;13.25;5.80;;;;;;;26.90;46.87;95810.34;5035065;28;20021;-27
2023/07/01 09:23:34;;;;;;;11.48;5.43;;;;;;;26.98;46.71;95800.00;5034324;28;20032;-26
2023/07/01 09:26:19;;;;;;;16.20;9.98;;;;;;;26.80;46.48;95802.50;5034614;28;20028;-26
2023/07/01 09:28:47;;;;;;;17.13;11.57;;;;;;;26.81;46.98;95806.78;5034106;28;20033;-26
2023/07/01 09:31:15;;;;;;;18.80;9.48;;;;;;;26.81;46.39;95797.69;5034752;28;20550;-26
2023/07/01 09:33:55;;;;;;;13.98;8.55;;;;;;;26.82;45.94;95797.16;5034292;28;20479;-26
2023/07/01 09:36:28;;;;;;;12.98;9.75;;;;;;;26.89;46.09;95797.72;5041546;28;20028;-26
2023/07/01 09:38:54;;;;;;;19.75;15.05;;;;;;;26.90;46.48;95788.81;5034395;28;20423;-26
2023/07/01 09:41:23;;;;;;;16.10;11.95;;;;;;;26.76;46.33;95790.97;5034220;28;20486;-26
2023/07/01 09:43:50;;;;;;;13.50;7.97;;;;;;;26.79;46.94;95789.88;5034620;28;20021;-26
2023/07/01 09:46:16;;;;;;;15.27;6.70;;;;;;;26.90;47.02;95799.19;5041178;28;20021;-26
2023/07/01 09:48:53;;;;;;;10.48;5.80;;;;;;;26.87;47.25;95778.03;5040633;28;20044;-26
2023/07/01 09:51:20;;;;;;;14.55;6.95;;;;;;;26.75;46.81;95777.63;5034191;28;20100;-26
2023/07/01 09:53:46;;;;;;;13.93;6.05;;;;;;;26.85;46.55;95781.38;5034039;28;20044;-26
2023/07/01 09:56:16;;;;;;;11.57;6.05;;;;;;;27.05;46.23;95783.34;5034292;28;20021;-26
2023/07/01 09:58:42;;;;;;;11.38;5.20;;;;;;;26.84;46.33;95769.50;5033894;28;20163;-26
2023/07/01 10:01:08;;;;;;;13.43;5.53;;;;;;;27.06;46.27;95770.16;5039137;28;20024;-27
2023/07/01 10:03:34;;;;;;;9.57;4.28;;;;;;;27.03;46.34;95766.44;5035966;28;20463;-26
2023/07/01 10:06:00;;;;;;;13.05;5.55;;;;;;;27.24;46.47;95769.09;5033673;28;20549;-26
2023/07/01 10:08:25;;;;;;;9.68;5.28;;;;;;;27.23;45.62;95770.38;5033856;28;20165;-26
2023/07/01 10:11:18;;;;;;;12.07;4.95;;;;;;;27.00;46.33;95764.00;5033588;28;20022;-26
2023/07/01 10:13:47;;;;;;;;;;;;;;;26.98;47.19;95770.13;5034534;28;20086;-26
2023/07/01 10:16:13;;;;;;;8.32;4.05;;;;;;;27.00;46.50;95764.00;5033475;28;19916;-26
2023/07/01 10:18:39;;;;;;;10.85;4.88;;;;;;;27.09;46.42;95772.56;5032276;28;20437;-26
2023/07/01 10:21:28;;;;;;;10.05;4.55;;;;;;;26.97;46.56;95770.69;5033700;28;20108;-26
2023/07/01 10:23:59;;;;;;;9.48;4.47;;;;;;;27.29;46.16;95776.53;5033591;28;20151;-27
2023/07/01 10:26:48;;;;;;;10.18;4.22;;;;;;;27.17;46.16;95778.16;5033537;28;20018;-26
2023/07/01 10:29:28;;;;;;;11.07;4.72;;;;;;;27.22;45.98;95779.28;5040970;28;20105;-26
2023/07/01 10:32:09;;;;;;;11.35;5.20;;;;;;;26.92;46.91;95780.66;5033820;28;20033;-26
2023/07/01 10:34:52;;;;;;;11.68;4.80;;;;;;;26.86;46.66;95782.13;5033447;28;20470;-26
2023/07/01 10:37:23;;;;;;;8.95;5.28;;;;;;;26.92;47.15;95786.22;5033344;28;20032;-26
2023/07/01 10:39:49;;;;;;;9.80;5.13;;;;;;;27.20;46.38;95784.69;5033319;28;20037;-26
2023/07/01 10:42:31;;;;;;;9.65;4.80;;;;;;;27.25;46.73;95783.75;5033898;28;20048;-26
2023/07/01 10:45:12;;;;;;;12.73;7.55;;;;;;;27.16;47.10;95783.00;5033809;28;20020;-26
2023/07/01 10:47:43;;;;;;;16.38;8.77;;;;;;;27.37;47.05;95787.66;5040356;28;20025;-27
2023/07/01 10:50:16;;;;;;;17.52;9.52;;;;;;;27.26;47.34;95785.97;5033422;28;20478;-27
2023/07/01 10:53:00;;;;;;;15.20;8.60;;;;;;;27.18;47.80;95785.22;5040539;28;20107;-26
2023/07/01 10:55:39;;;;;;;12.93;7.32;;;;;;;27.07;47.67;95780.00;5033259;28;20510;-26
2023/07/01 10:58:26;;;;;;;14.50;6.75;;;;;;;27.27;47.28;95781.91;5033482;28;20076;-26
2023/07/01 11:00:59;;;;;;;14.93;7.40;;;;;;;27.28;47.33;95783.38;5034606;28;20375;-26
2023/07/01 11:03:36;;;;;;;14.47;7.80;;;;;;;27.31;47.14;95782.28;5037271;28;20029;-26
2023/07/01 11:06:11;;;;;;;13.52;7.57;;;;;;;26.91;49.29;95776.41;5037175;28;20021;-26
2023/07/01 11:09:03;;;;;;;11.60;7.28;;;;;;;26.89;50.24;95770.63;5037261;28;20025;-26
2023/07/01 11:11:29;;;;;;;11.10;5.95;;;;;;;27.17;49.89;95786.53;5035419;28;20475;-28
2023/07/01 11:14:06;;;;;;;15.35;6.40;;;;;;;27.31;48.96;95782.28;5036950;28;20083;-26
2023/07/01 11:16:33;;;;;;;10.38;5.00;;;;;;;27.10;49.63;95785.19;5036896;28;20056;-26
2023/07/01 11:19:04;;;;;;;11.35;5.20;;;;;;;27.27;48.86;95776.34;5036934;28;20047;-27
2023/07/01 11:21:30;;;;;;;8.70;4.90;;;;;;;26.96;50.37;95769.94;5036691;28;20028;-26
2023/07/01 11:24:04;;;;;;;15.00;4.85;;;;;;;27.01;50.52;95776.63;5037233;28;20114;-26
2023/07/01 11:26:33;;;;;;;11.65;4.72;;;;;;;27.05;50.14;95771.47;5036603;28;20026;-26
2023/07/01 11:28:59;;;;;;;8.43;4.60;;;;;;;26.91;50.64;95768.03;5036557;28;20113;-26
2023/07/01 11:31:30;;;;;;;6.88;4.03;;;;;;;26.61;51.46;95779.03;5036695;28;20013;-26